createdAt,value
2022-10-21T00:00:48.545Z,83.00
2022-10-21T00:01:50.447Z,82.70
2022-10-21T00:02:52.373Z,82.68
2022-10-21T00:03:54.204Z,82.35
2022-10-21T00:04:56.137Z,82.85
2022-10-21T00:05:57.967Z,82.59
2022-10-21T00:06:59.830Z,82.39
2022-10-21T00:08:01.564Z,82.80
2022-10-21T00:09:03.597Z,82.79
2022-10-21T00:10:06.315Z,82.60
2022-10-21T00:11:09.266Z,82.20
2022-10-21T00:12:11.115Z,82.63
2022-10-21T00:13:12.996Z,82.62
2022-10-21T00:14:14.788Z,82.39
2022-10-21T00:15:16.653Z,82.31
2022-10-21T00:16:19.212Z,82.08
2022-10-21T00:17:21.360Z,82.10
2022-10-21T00:18:23.083Z,81.49
2022-10-21T00:19:24.971Z,81.55
2022-10-21T00:20:26.751Z,81.95
2022-10-21T00:21:28.525Z,81.28
2022-10-21T00:22:30.372Z,81.25
2022-10-21T00:23:32.101Z,81.33
2022-10-21T00:24:33.968Z,81.22
2022-10-21T00:25:35.829Z,80.72
2022-10-21T00:26:38.506Z,80.95
2022-10-21T00:27:40.886Z,80.82
2022-10-21T00:28:43.558Z,80.60
2022-10-21T00:29:45.356Z,80.55
2022-10-21T00:30:47.167Z,80.30
2022-10-21T00:31:48.944Z,80.27
2022-10-21T00:32:50.816Z,80.40
2022-10-21T00:33:52.621Z,80.08
2022-10-21T00:34:54.378Z,79.77
2022-10-21T00:36:03.037Z,80.26
2022-10-21T00:37:04.877Z,80.21
2022-10-21T00:38:07.203Z,80.18
2022-10-21T00:39:08.995Z,80.67
2022-10-21T00:40:10.894Z,80.12
2022-10-21T00:41:13.736Z,80.31
2022-10-21T00:42:19.631Z,80.59
2022-10-21T00:43:21.864Z,80.41
2022-10-21T00:44:23.684Z,80.40
2022-10-21T00:45:29.527Z,80.86
2022-10-21T00:46:37.171Z,80.86
2022-10-21T00:47:45.029Z,80.48
2022-10-21T00:48:51.759Z,80.87
2022-10-21T00:49:58.740Z,81.03
2022-10-21T00:51:00.464Z,80.57
2022-10-21T00:52:03.888Z,80.58
2022-10-21T00:53:08.079Z,81.13
2022-10-21T00:54:10.300Z,80.55
2022-10-21T00:55:12.251Z,80.58
2022-10-21T00:56:16.821Z,80.04
2022-10-21T00:57:19.771Z,80.63
2022-10-21T00:58:22.860Z,79.87
2022-10-21T00:59:27.225Z,80.42
2022-10-21T01:00:29.042Z,79.78
2022-10-21T01:01:31.286Z,79.82
2022-10-21T01:02:33.150Z,80.02
2022-10-21T01:03:35.831Z,80.23
2022-10-21T01:04:37.747Z,79.88
2022-10-21T01:05:39.679Z,80.05
2022-10-21T01:06:42.963Z,80.32
2022-10-21T01:07:47.373Z,80.55
2022-10-21T01:08:49.515Z,79.75
2022-10-21T01:09:51.864Z,80.24
2022-10-21T01:10:54.282Z,79.68
2022-10-21T01:11:56.618Z,79.79
2022-10-21T01:13:09.336Z,79.57
2022-10-21T01:14:28.496Z,79.60
2022-10-21T01:15:33.264Z,79.58
2022-10-21T01:16:43.120Z,79.24
2022-10-21T01:17:47.839Z,79.46
2022-10-21T01:18:49.791Z,79.57
2022-10-21T01:20:10.631Z,79.48
2022-10-21T01:21:12.375Z,80.08
2022-10-21T01:22:33.020Z,79.72
2022-10-21T01:25:14.019Z,80.39
2022-10-21T01:26:25.762Z,80.43
2022-10-21T01:27:30.324Z,80.32
2022-10-21T01:28:50.570Z,80.32
2022-10-21T01:30:11.170Z,80.54
2022-10-21T01:31:22.186Z,80.52
2022-10-21T01:32:42.755Z,80.20
2022-10-21T01:33:50.277Z,80.20
2022-10-21T01:34:55.042Z,80.52
2022-10-21T01:36:08.839Z,80.85
2022-10-21T01:37:30.548Z,80.16
2022-10-21T01:38:36.079Z,80.03
2022-10-21T01:39:37.779Z,80.33
2022-10-21T01:40:52.266Z,80.53
2022-10-21T01:41:57.254Z,80.22
2022-10-21T01:43:03.151Z,79.79
2022-10-21T01:44:16.984Z,79.91
2022-10-21T01:45:30.793Z,80.11
2022-10-21T01:46:38.751Z,80.25
2022-10-21T01:47:43.549Z,79.69
2022-10-21T01:48:48.161Z,79.89
2022-10-21T01:49:54.047Z,79.67
2022-10-21T01:50:59.049Z,79.57
2022-10-21T01:52:02.723Z,79.56
2022-10-21T01:53:10.269Z,79.65
2022-10-21T01:54:19.911Z,79.71
2022-10-21T01:55:23.337Z,79.71
2022-10-21T01:56:26.148Z,79.39
2022-10-21T01:57:30.178Z,79.38
2022-10-21T01:58:34.606Z,79.79
2022-10-21T01:59:37.756Z,79.93
2022-10-21T02:00:40.057Z,79.79
2022-10-21T02:01:43.479Z,80.34
2022-10-21T02:02:47.861Z,80.30
2022-10-21T02:03:53.216Z,80.28
2022-10-21T02:04:56.503Z,79.77
2022-10-21T02:05:58.704Z,79.88
2022-10-21T02:07:00.515Z,79.86
2022-10-21T02:08:02.395Z,80.31
2022-10-21T02:09:04.475Z,79.81
2022-10-21T02:10:06.499Z,79.97
2022-10-21T02:11:09.833Z,80.01
2022-10-21T02:12:11.728Z,79.96
2022-10-21T02:13:17.648Z,79.54
2022-10-21T02:14:28.378Z,79.68
2022-10-21T02:15:30.761Z,79.79
2022-10-21T02:16:35.984Z,80.09
2022-10-21T02:17:39.690Z,79.99
2022-10-21T02:18:41.524Z,79.46
2022-10-21T02:19:43.320Z,79.76
2022-10-21T02:20:45.937Z,79.93
2022-10-21T02:21:49.895Z,79.99
2022-10-21T02:22:51.717Z,79.91
2022-10-21T02:23:55.678Z,79.85
2022-10-21T02:25:03.677Z,79.50
2022-10-21T02:26:05.729Z,79.81
2022-10-21T02:27:07.568Z,79.61
2022-10-21T02:28:10.107Z,79.51
2022-10-21T02:29:13.193Z,80.02
2022-10-21T02:30:15.376Z,80.28
2022-10-21T02:31:17.226Z,80.36
2022-10-21T02:32:26.269Z,80.05
2022-10-21T02:33:36.828Z,80.18
2022-10-21T02:34:42.399Z,80.45
2022-10-21T02:36:02.926Z,80.37
2022-10-21T02:37:37.117Z,80.13
2022-10-21T02:38:42.831Z,80.48
2022-10-21T02:39:49.054Z,80.43
2022-10-21T02:41:01.272Z,80.01
2022-10-21T02:42:04.926Z,80.29
2022-10-21T02:43:12.520Z,79.97
2022-10-21T02:44:14.439Z,80.42
2022-10-21T02:45:17.037Z,80.34
2022-10-21T02:46:18.917Z,80.14
2022-10-21T02:47:20.704Z,79.80
2022-10-21T02:48:22.479Z,80.26
2022-10-21T02:49:24.294Z,79.99
2022-10-21T02:50:26.204Z,79.86
2022-10-21T02:51:28.004Z,80.00
2022-10-21T02:52:29.839Z,79.93
2022-10-21T02:53:31.875Z,80.33
2022-10-21T02:54:33.662Z,80.25
2022-10-21T02:55:35.504Z,80.27
2022-10-21T02:56:37.314Z,80.71
2022-10-21T02:57:39.172Z,81.03
2022-10-21T02:58:41.183Z,81.75
2022-10-21T02:59:42.945Z,81.66
2022-10-21T03:00:44.861Z,81.90
2022-10-21T03:01:46.701Z,82.08
2022-10-21T03:02:48.608Z,82.03
2022-10-21T03:03:50.435Z,82.21
2022-10-21T03:04:52.152Z,81.81
2022-10-21T03:05:53.976Z,81.96
2022-10-21T03:06:55.747Z,81.27
2022-10-21T03:07:57.523Z,81.09
2022-10-21T03:08:59.397Z,81.23
2022-10-21T03:10:01.215Z,81.71
2022-10-21T03:11:03.150Z,81.16
2022-10-21T03:12:04.923Z,81.32
2022-10-21T03:13:06.768Z,81.50
2022-10-21T03:14:08.515Z,81.32
2022-10-21T03:15:10.531Z,81.92
2022-10-21T03:16:12.432Z,81.62
2022-10-21T03:17:14.277Z,81.88
2022-10-21T03:18:16.444Z,81.46
2022-10-21T03:19:18.196Z,81.49
2022-10-21T03:20:20.088Z,81.13
2022-10-21T03:21:22.058Z,81.04
2022-10-21T03:22:23.838Z,80.86
2022-10-21T03:23:25.596Z,81.50
2022-10-21T03:24:28.705Z,81.12
2022-10-21T03:25:35.278Z,81.20
2022-10-21T03:26:37.643Z,81.21
2022-10-21T03:27:39.903Z,80.96
2022-10-21T03:28:41.743Z,80.84
2022-10-21T03:29:43.470Z,80.67
2022-10-21T03:30:45.256Z,80.85
2022-10-21T03:31:47.080Z,80.80
2022-10-21T03:32:48.876Z,80.95
2022-10-21T03:33:50.668Z,80.75
2022-10-21T03:34:52.430Z,80.85
2022-10-21T03:35:54.755Z,80.62
2022-10-21T03:36:56.682Z,80.59
2022-10-21T03:37:58.521Z,81.16
2022-10-21T03:39:00.302Z,80.65
2022-10-21T03:40:02.132Z,81.21
2022-10-21T03:41:04.031Z,80.76
2022-10-21T03:42:05.873Z,80.79
2022-10-21T03:43:07.744Z,80.74
2022-10-21T03:44:09.619Z,80.99
2022-10-21T03:45:11.887Z,80.98
2022-10-21T03:46:13.711Z,80.95
2022-10-21T03:47:15.567Z,80.85
2022-10-21T03:48:17.311Z,81.05
2022-10-21T03:49:21.312Z,81.21
2022-10-21T03:50:26.525Z,80.63
2022-10-21T03:51:28.792Z,80.52
2022-10-21T03:52:30.651Z,81.02
2022-10-21T03:53:42.788Z,80.74
2022-10-21T03:54:45.292Z,80.63
2022-10-21T03:55:47.039Z,80.93
2022-10-21T03:56:48.985Z,80.79
2022-10-21T03:57:51.295Z,81.09
2022-10-21T03:58:56.401Z,81.46
2022-10-21T04:00:00.424Z,81.15
2022-10-21T04:01:02.271Z,81.68
2022-10-21T04:02:04.181Z,81.74
2022-10-21T04:03:06.035Z,82.05
2022-10-21T04:04:07.839Z,82.26
2022-10-21T04:05:09.911Z,82.00
2022-10-21T04:06:11.754Z,81.94
2022-10-21T04:07:13.601Z,82.34
2022-10-21T04:08:15.471Z,82.12
2022-10-21T04:09:17.308Z,82.15
2022-10-21T04:10:19.174Z,82.33
2022-10-21T04:11:20.997Z,82.45
2022-10-21T04:12:22.766Z,82.08
2022-10-21T04:13:24.979Z,82.21
2022-10-21T04:14:26.744Z,82.22
2022-10-21T04:15:28.705Z,82.68
2022-10-21T04:16:30.623Z,82.93
2022-10-21T04:17:32.441Z,82.63
2022-10-21T04:18:34.889Z,82.29
2022-10-21T04:19:36.764Z,81.84
2022-10-21T04:20:38.609Z,81.87
2022-10-21T04:21:40.379Z,82.11
2022-10-21T04:22:42.226Z,82.17
2022-10-21T04:23:44.149Z,82.98
2022-10-21T04:24:45.954Z,82.96
2022-10-21T04:25:48.087Z,82.72
2022-10-21T04:26:49.900Z,83.60
2022-10-21T04:27:51.729Z,83.49
2022-10-21T04:28:53.535Z,84.12
2022-10-21T04:29:55.268Z,83.78
2022-10-21T04:30:57.163Z,84.31
2022-10-21T04:31:58.996Z,84.56
2022-10-21T04:33:00.804Z,85.08
2022-10-21T04:34:02.695Z,85.29
2022-10-21T04:35:04.603Z,84.70
2022-10-21T04:36:06.539Z,85.47
2022-10-21T04:37:08.361Z,85.54
2022-10-21T04:38:10.644Z,85.38
2022-10-21T04:39:12.455Z,84.92
2022-10-21T04:40:14.249Z,84.97
2022-10-21T04:41:16.065Z,85.43
2022-10-21T04:42:17.906Z,86.13
2022-10-21T04:43:19.720Z,86.23
2022-10-21T04:44:21.751Z,86.47
2022-10-21T04:45:23.532Z,86.00
2022-10-21T04:46:25.335Z,86.19
2022-10-21T04:47:27.230Z,85.98
2022-10-21T04:48:29.035Z,86.23
2022-10-21T04:49:30.901Z,86.12
2022-10-21T04:50:35.119Z,85.88
2022-10-21T04:51:36.890Z,85.46
2022-10-21T04:52:40.145Z,85.46
2022-10-21T04:53:42.296Z,85.63
2022-10-21T04:54:44.197Z,85.74
2022-10-21T04:55:46.173Z,85.46
2022-10-21T04:56:47.923Z,85.50
2022-10-21T04:57:49.774Z,85.94
2022-10-21T04:58:51.542Z,85.81
2022-10-21T04:59:53.312Z,85.54
2022-10-21T05:00:55.273Z,85.68
2022-10-21T05:01:57.176Z,85.68
2022-10-21T05:02:59.113Z,85.65
2022-10-21T05:04:00.946Z,85.91
2022-10-21T05:05:02.724Z,86.10
2022-10-21T05:06:04.760Z,86.26
2022-10-21T05:07:06.539Z,85.96
2022-10-21T05:08:11.502Z,86.26
2022-10-21T05:09:13.851Z,86.33
2022-10-21T05:10:15.694Z,86.42
2022-10-21T05:11:17.511Z,86.56
2022-10-21T05:12:19.333Z,86.76
2022-10-21T05:13:21.189Z,86.83
2022-10-21T05:14:23.078Z,86.91
2022-10-21T05:15:25.268Z,86.74
2022-10-21T05:16:27.149Z,86.26
2022-10-21T05:17:28.952Z,86.47
2022-10-21T05:18:31.575Z,86.49
2022-10-21T05:19:33.549Z,86.16
2022-10-21T05:20:35.367Z,85.99
2022-10-21T05:22:43.890Z,86.49
2022-10-21T05:23:45.741Z,86.60
2022-10-21T05:24:47.482Z,86.79
2022-10-21T05:25:51.881Z,86.29
2022-10-21T05:26:53.747Z,86.77
2022-10-21T05:27:55.505Z,86.40
2022-10-21T05:29:00.414Z,86.64
2022-10-21T05:30:02.321Z,86.37
2022-10-21T05:31:04.259Z,86.87
2022-10-21T05:32:06.161Z,86.68
2022-10-21T05:33:08.148Z,86.67
2022-10-21T05:34:10.105Z,86.94
2022-10-21T05:35:12.664Z,86.68
2022-10-21T05:36:14.548Z,86.39
2022-10-21T05:37:16.392Z,86.43
2022-10-21T05:38:18.207Z,86.09
2022-10-21T05:39:19.983Z,86.36
2022-10-21T05:40:21.779Z,85.84
2022-10-21T05:41:23.621Z,85.73
2022-10-21T05:42:25.487Z,85.77
2022-10-21T05:43:28.259Z,85.89
2022-10-21T05:44:30.039Z,85.30
2022-10-21T05:45:31.815Z,85.63
2022-10-21T05:46:33.645Z,86.11
2022-10-21T05:47:35.483Z,85.95
2022-10-21T05:48:37.715Z,85.69
2022-10-21T05:49:39.529Z,85.62
2022-10-21T05:50:41.301Z,85.72
2022-10-21T05:51:44.932Z,85.70
2022-10-21T05:52:46.831Z,85.65
2022-10-21T05:53:48.584Z,85.57
2022-10-21T05:54:50.351Z,85.75
2022-10-21T05:55:58.322Z,85.73
2022-10-21T05:57:00.121Z,85.36
2022-10-21T05:58:02.013Z,85.37
2022-10-21T05:59:06.607Z,85.88
2022-10-21T06:00:11.617Z,85.64
2022-10-21T06:01:13.535Z,86.15
2022-10-21T06:02:15.388Z,86.24
2022-10-21T06:03:17.194Z,85.81
2022-10-21T06:04:18.958Z,86.14
2022-10-21T06:05:21.380Z,86.08
2022-10-21T06:06:23.217Z,86.05
2022-10-21T06:07:25.048Z,85.55
2022-10-21T06:08:27.188Z,85.78
2022-10-21T06:09:28.954Z,85.69
2022-10-21T06:10:30.699Z,85.90
2022-10-21T06:11:32.545Z,86.00
2022-10-21T06:12:34.400Z,85.65
2022-10-21T06:13:36.365Z,85.32
2022-10-21T06:14:38.372Z,85.20
2022-10-21T06:15:40.227Z,85.27
2022-10-21T06:16:41.980Z,84.91
2022-10-21T06:17:43.779Z,84.91
2022-10-21T06:18:45.708Z,85.10
2022-10-21T06:19:50.841Z,85.01
2022-10-21T06:20:52.937Z,84.84
2022-10-21T06:21:54.804Z,84.83
2022-10-21T06:22:58.146Z,84.34
2022-10-21T06:24:00.067Z,84.56
2022-10-21T06:25:01.923Z,84.34
2022-10-21T06:26:08.477Z,84.82
2022-10-21T06:27:10.339Z,84.29
2022-10-21T06:28:12.140Z,84.46
2022-10-21T06:29:16.179Z,84.47
2022-10-21T06:30:18.049Z,84.05
2022-10-21T06:31:21.963Z,84.23
2022-10-21T06:32:23.784Z,83.77
2022-10-21T06:33:27.159Z,83.91
2022-10-21T06:34:29.361Z,83.82
2022-10-21T06:35:31.144Z,83.59
2022-10-21T06:36:32.982Z,83.63
2022-10-21T06:37:34.874Z,83.68
2022-10-21T06:38:38.062Z,83.85
2022-10-21T06:39:39.892Z,83.84
2022-10-21T06:40:42.182Z,83.67
2022-10-21T06:41:43.952Z,83.75
2022-10-21T06:42:45.695Z,83.59
2022-10-21T06:43:51.226Z,83.24
2022-10-21T06:44:57.906Z,83.69
2022-10-21T06:46:02.265Z,83.29
2022-10-21T06:47:04.139Z,83.77
2022-10-21T06:48:06.000Z,83.73
2022-10-21T06:49:07.875Z,83.91
2022-10-21T06:50:09.751Z,83.51
2022-10-21T06:51:22.098Z,83.41
2022-10-21T06:52:24.038Z,83.43
2022-10-21T06:53:25.954Z,83.81
2022-10-21T06:54:27.868Z,83.56
2022-10-21T06:55:29.674Z,83.47
2022-10-21T06:56:32.409Z,83.80
2022-10-21T06:57:34.304Z,83.38
2022-10-21T06:58:37.209Z,83.44
2022-10-21T06:59:39.083Z,83.49
2022-10-21T07:00:40.893Z,83.40
2022-10-21T07:01:59.034Z,83.05
2022-10-21T07:03:02.243Z,82.85
2022-10-21T07:04:04.602Z,83.14
2022-10-21T07:05:06.631Z,82.79
2022-10-21T07:06:08.479Z,82.66
2022-10-21T07:07:10.291Z,82.89
2022-10-21T07:08:12.887Z,83.16
2022-10-21T07:09:15.264Z,83.24
2022-10-21T07:10:17.092Z,82.57
2022-10-21T07:11:18.855Z,82.70
2022-10-21T07:12:20.740Z,83.08
2022-10-21T07:13:25.965Z,82.63
2022-10-21T07:14:28.101Z,82.88
2022-10-21T07:15:29.927Z,82.71
2022-10-21T07:16:35.320Z,82.20
2022-10-21T07:17:37.542Z,82.02
2022-10-21T07:18:42.596Z,82.09
2022-10-21T07:19:44.981Z,81.12
2022-10-21T07:20:46.742Z,81.88
2022-10-21T07:21:48.802Z,81.67
2022-10-21T07:22:50.620Z,81.80
2022-10-21T07:23:52.845Z,81.93
2022-10-21T07:24:54.659Z,81.40
2022-10-21T07:25:56.515Z,81.48
2022-10-21T07:26:58.293Z,81.84
2022-10-21T07:28:00.315Z,81.91
2022-10-21T07:29:05.330Z,81.73
2022-10-21T07:30:07.327Z,81.75
2022-10-21T07:31:09.070Z,81.04
2022-10-21T07:32:10.857Z,80.86
2022-10-21T07:33:13.027Z,81.43
2022-10-21T07:34:15.552Z,81.18
2022-10-21T07:35:17.441Z,81.08
2022-10-21T07:36:21.291Z,80.79
2022-10-21T07:37:23.107Z,81.16
2022-10-21T07:38:24.941Z,81.23
2022-10-21T07:39:27.319Z,80.07
2022-10-21T07:40:29.336Z,80.46
2022-10-21T07:41:32.993Z,80.45
2022-10-21T07:42:34.802Z,80.49
2022-10-21T07:43:36.656Z,80.48
2022-10-21T07:44:38.469Z,80.30
2022-10-21T07:45:41.937Z,80.53
2022-10-21T07:46:44.800Z,80.29
2022-10-21T07:47:46.789Z,80.18
2022-10-21T07:48:49.022Z,80.22
2022-10-21T07:49:50.815Z,80.07
2022-10-21T07:50:52.672Z,79.89
2022-10-21T07:51:54.560Z,80.09
2022-10-21T07:53:10.962Z,79.83
2022-10-21T07:54:14.856Z,80.00
2022-10-21T07:55:17.519Z,79.14
2022-10-21T07:56:20.935Z,79.71
2022-10-21T07:57:22.743Z,79.56
2022-10-21T07:58:24.505Z,79.16
2022-10-21T07:59:26.425Z,79.29
2022-10-21T08:00:28.215Z,79.00
2022-10-21T08:01:30.135Z,78.35
2022-10-21T08:02:32.073Z,78.56
2022-10-21T08:03:33.895Z,78.50
2022-10-21T08:04:35.810Z,78.33
2022-10-21T08:05:39.639Z,78.38
2022-10-21T08:06:41.560Z,78.61
2022-10-21T08:07:44.040Z,78.73
2022-10-21T08:08:46.320Z,78.54
2022-10-21T08:09:48.285Z,77.94
2022-10-21T08:11:58.285Z,78.38
2022-10-21T08:13:00.059Z,78.40
2022-10-21T08:14:03.558Z,78.61
2022-10-21T08:15:05.627Z,78.51
2022-10-21T08:16:07.749Z,78.47
2022-10-21T08:17:09.552Z,78.77
2022-10-21T08:18:11.603Z,78.47
2022-10-21T08:19:20.515Z,78.33
2022-10-21T08:20:23.117Z,78.25
2022-10-21T08:21:24.923Z,78.67
2022-10-21T08:22:26.792Z,78.58
2022-10-21T08:23:28.617Z,78.34
2022-10-21T08:24:30.544Z,78.13
2022-10-21T08:25:32.468Z,78.16
2022-10-21T08:26:34.308Z,78.54
2022-10-21T08:27:36.153Z,78.83
2022-10-21T08:28:37.891Z,78.37
2022-10-21T08:29:40.211Z,78.10
2022-10-21T08:30:42.528Z,78.09
2022-10-21T08:31:44.520Z,77.19
2022-10-21T08:32:46.316Z,77.77
2022-10-21T08:33:48.467Z,78.00
2022-10-21T08:34:50.293Z,78.09
2022-10-21T08:35:52.059Z,77.90
2022-10-21T08:36:53.871Z,77.73
2022-10-21T08:37:55.791Z,77.50
2022-10-21T08:38:58.660Z,77.46
2022-10-21T08:40:00.411Z,77.12
2022-10-21T08:41:02.837Z,77.19
2022-10-21T08:42:08.733Z,76.84
2022-10-21T08:43:16.213Z,77.06
2022-10-21T08:44:29.742Z,76.80
2022-10-21T08:45:37.897Z,76.39
2022-10-21T08:46:41.885Z,76.67
2022-10-21T08:47:46.466Z,75.92
2022-10-21T08:48:56.875Z,76.19
2022-10-21T08:50:00.956Z,75.36
2022-10-21T08:51:05.996Z,75.73
2022-10-21T08:52:20.299Z,75.28
2022-10-21T08:53:24.774Z,75.97
2022-10-21T08:54:31.868Z,75.93
2022-10-21T08:55:35.253Z,75.70
2022-10-21T08:56:37.145Z,75.85
2022-10-21T08:57:39.220Z,76.07
2022-10-21T08:58:41.258Z,75.52
2022-10-21T08:59:43.128Z,75.24
2022-10-21T09:00:48.925Z,75.56
2022-10-21T09:01:55.984Z,75.67
2022-10-21T09:03:15.826Z,75.52
2022-10-21T09:04:22.546Z,75.38
2022-10-21T09:05:41.658Z,75.47
2022-10-21T09:06:55.440Z,75.07
2022-10-21T09:08:03.146Z,75.30
2022-10-21T09:09:28.203Z,75.43
2022-10-21T09:10:36.156Z,75.24
2022-10-21T09:11:44.100Z,75.26
2022-10-21T09:13:01.555Z,75.30
2022-10-21T09:14:03.317Z,75.88
2022-10-21T09:15:11.195Z,75.81
2022-10-21T09:16:23.150Z,75.26
2022-10-21T09:17:34.844Z,75.21
2022-10-21T09:18:39.675Z,75.38
2022-10-21T09:20:00.313Z,75.64
2022-10-21T09:21:31.717Z,75.38
2022-10-21T09:22:53.389Z,75.40
2022-10-21T09:23:55.221Z,75.12
2022-10-21T09:25:02.301Z,75.37
2022-10-21T09:26:25.392Z,74.90
2022-10-21T09:27:51.335Z,74.91
2022-10-21T09:28:53.535Z,74.55
2022-10-21T09:29:57.533Z,74.64
2022-10-21T09:31:02.600Z,74.35
2022-10-21T09:32:10.393Z,74.05
2022-10-21T09:33:16.687Z,74.00
2022-10-21T09:34:23.038Z,74.03
2022-10-21T09:35:34.709Z,74.01
2022-10-21T09:36:38.512Z,73.75
2022-10-21T09:37:42.760Z,74.05
2022-10-21T09:39:06.597Z,74.05
2022-10-21T09:40:17.342Z,73.63
2022-10-21T09:42:42.732Z,73.76
2022-10-21T09:43:48.115Z,73.70
2022-10-21T09:44:50.016Z,73.31
2022-10-21T09:45:51.859Z,73.33
2022-10-21T09:46:54.019Z,72.76
2022-10-21T09:48:00.256Z,72.77
2022-10-21T09:50:24.969Z,72.92
2022-10-21T09:51:33.783Z,73.16
2022-10-21T09:52:37.955Z,73.27
2022-10-21T09:53:53.773Z,72.72
2022-10-21T09:54:56.758Z,72.90
2022-10-21T09:56:02.592Z,72.94
2022-10-21T09:57:15.205Z,72.67
2022-10-21T09:58:28.474Z,72.80
2022-10-21T09:59:33.312Z,72.08
2022-10-21T10:00:46.255Z,72.33
2022-10-21T10:01:48.347Z,72.48
2022-10-21T10:02:50.277Z,72.32
2022-10-21T10:03:52.972Z,72.29
2022-10-21T10:04:54.840Z,72.04
2022-10-21T10:05:56.828Z,72.34
2022-10-21T10:07:03.020Z,72.01
2022-10-21T10:08:23.186Z,72.43
2022-10-21T10:09:25.748Z,72.36
2022-10-21T10:10:32.577Z,72.62
2022-10-21T10:11:34.433Z,72.48
2022-10-21T10:12:36.568Z,73.12
2022-10-21T10:13:39.905Z,73.12
2022-10-21T10:14:45.347Z,72.76
2022-10-21T10:15:47.225Z,72.85
2022-10-21T10:16:49.027Z,72.65
2022-10-21T10:17:50.878Z,72.48
2022-10-21T10:18:54.263Z,71.99
2022-10-21T10:20:07.584Z,72.23
2022-10-21T10:21:13.602Z,72.76
2022-10-21T10:22:16.459Z,72.20
2022-10-21T10:23:19.083Z,72.12
2022-10-21T10:24:21.817Z,71.92
2022-10-21T10:25:28.733Z,72.31
2022-10-21T10:26:32.175Z,71.83
2022-10-21T10:27:34.020Z,71.66
2022-10-21T10:28:35.978Z,71.54
2022-10-21T10:29:37.893Z,71.14
2022-10-21T10:30:42.604Z,71.21
2022-10-21T10:31:51.578Z,71.22
2022-10-21T10:32:55.222Z,71.39
2022-10-21T10:33:59.604Z,71.41
2022-10-21T10:35:06.090Z,71.65
2022-10-21T10:36:09.644Z,71.62
2022-10-21T10:37:22.569Z,72.09
2022-10-21T10:38:31.057Z,71.70
2022-10-21T10:39:35.169Z,72.01
2022-10-21T10:40:41.936Z,72.52
2022-10-21T10:41:47.641Z,72.16
2022-10-21T10:42:51.659Z,72.33
2022-10-21T10:43:55.110Z,71.89
2022-10-21T10:44:58.279Z,70.92
2022-10-21T10:46:02.406Z,71.22
2022-10-21T10:47:05.926Z,71.74
2022-10-21T10:48:08.333Z,71.37
2022-10-21T10:49:13.214Z,70.87
2022-10-21T10:50:33.708Z,71.49
2022-10-21T10:51:36.191Z,71.45
2022-10-21T10:52:38.400Z,71.50
2022-10-21T10:53:40.225Z,71.30
2022-10-21T10:54:42.794Z,71.20
2022-10-21T10:55:46.262Z,70.50
2022-10-21T10:56:58.400Z,69.98
2022-10-21T10:58:13.512Z,70.14
2022-10-21T10:59:22.148Z,70.31
2022-10-21T11:00:24.687Z,70.41
2022-10-21T11:01:30.509Z,70.30
2022-10-21T11:02:40.500Z,70.46
2022-10-21T11:03:45.892Z,70.40
2022-10-21T11:06:01.585Z,70.49
2022-10-21T11:07:08.842Z,70.62
2022-10-21T11:08:18.321Z,70.70
2022-10-21T11:09:22.750Z,70.24
2022-10-21T11:10:27.024Z,70.75
2022-10-21T11:11:36.606Z,71.06
2022-10-21T11:12:38.608Z,71.13
2022-10-21T11:13:45.678Z,71.29
2022-10-21T11:14:52.111Z,71.10
2022-10-21T11:16:11.486Z,71.20
2022-10-21T11:17:17.016Z,70.68
2022-10-21T11:18:37.714Z,70.71
2022-10-21T11:19:58.360Z,70.75
2022-10-21T11:21:07.578Z,71.13
2022-10-21T11:22:14.270Z,70.88
2022-10-21T11:23:19.161Z,70.36
2022-10-21T11:24:39.571Z,70.80
2022-10-21T11:25:41.416Z,71.01
2022-10-21T11:26:43.159Z,71.91
2022-10-21T11:27:47.702Z,71.94
2022-10-21T11:28:56.177Z,71.97
2022-10-21T11:30:05.576Z,71.61
2022-10-21T11:31:15.533Z,71.28
2022-10-21T11:32:17.328Z,70.95
2022-10-21T11:33:24.516Z,69.55
2022-10-21T11:34:40.604Z,69.99
2022-10-21T11:35:47.522Z,69.63
2022-10-21T11:37:15.936Z,69.52
2022-10-21T11:38:33.814Z,69.78
2022-10-21T11:39:54.038Z,69.16
2022-10-21T11:40:55.732Z,69.57
2022-10-21T11:42:05.724Z,68.67
2022-10-21T11:43:19.615Z,68.76
2022-10-21T11:44:39.950Z,68.92
2022-10-21T11:46:02.139Z,68.62
2022-10-21T11:47:16.679Z,68.88
2022-10-21T11:48:39.786Z,68.58
2022-10-21T11:50:00.041Z,68.73
2022-10-21T11:51:16.532Z,68.79
2022-10-21T11:52:25.545Z,69.61
2022-10-21T11:53:30.423Z,69.88
2022-10-21T11:54:45.754Z,69.58
2022-10-21T11:56:04.301Z,68.30
2022-10-21T11:57:09.243Z,68.82
2022-10-21T11:58:23.312Z,69.01
2022-10-21T11:59:45.304Z,69.26
2022-10-21T12:01:06.511Z,69.09
2022-10-21T12:02:21.249Z,69.35
2022-10-21T12:03:37.248Z,68.77
2022-10-21T12:04:39.000Z,69.63
2022-10-21T12:06:01.134Z,69.61
2022-10-21T12:07:12.905Z,68.82
2022-10-21T12:08:14.713Z,69.56
2022-10-21T12:09:23.078Z,69.54
2022-10-21T12:10:30.790Z,69.94
2022-10-21T12:11:40.649Z,69.55
2022-10-21T12:12:46.575Z,69.05
2022-10-21T12:13:51.673Z,67.92
2022-10-21T12:14:56.274Z,67.25
2022-10-21T12:15:58.135Z,68.08
2022-10-21T12:17:02.033Z,68.40
2022-10-21T12:18:05.149Z,67.79
2022-10-21T12:19:11.093Z,68.02
2022-10-21T12:20:22.956Z,68.48
2022-10-21T12:21:27.961Z,68.05
2022-10-21T12:22:31.599Z,67.93
2022-10-21T12:23:34.405Z,68.15
2022-10-21T12:24:56.351Z,68.05
2022-10-21T12:26:16.912Z,68.18
2022-10-21T12:27:21.517Z,67.94
2022-10-21T12:28:23.255Z,68.62
2022-10-21T12:29:34.060Z,68.47
2022-10-21T12:30:54.106Z,68.79
2022-10-21T12:31:59.007Z,69.14
2022-10-21T12:33:19.566Z,69.52
2022-10-21T12:34:22.113Z,69.15
2022-10-21T12:35:28.521Z,68.96
2022-10-21T12:36:37.465Z,68.82
2022-10-21T12:37:42.036Z,68.52
2022-10-21T12:38:44.155Z,68.19
2022-10-21T12:39:49.734Z,67.84
2022-10-21T12:41:11.513Z,68.26
2022-10-21T12:42:15.741Z,68.07
2022-10-21T12:43:23.397Z,68.38
2022-10-21T12:44:27.460Z,68.75
2022-10-21T12:45:31.230Z,69.13
2022-10-21T12:46:40.189Z,67.72
2022-10-21T12:47:45.713Z,67.72
2022-10-21T12:48:48.862Z,67.99
2022-10-21T12:50:09.103Z,68.33
2022-10-21T12:51:18.979Z,67.86
2022-10-21T12:52:24.303Z,68.35
2022-10-21T12:54:01.483Z,68.25
2022-10-21T12:55:04.453Z,68.95
2022-10-21T12:56:06.960Z,69.46
2022-10-21T12:57:09.779Z,69.87
2022-10-21T12:58:25.674Z,70.01
2022-10-21T12:59:27.471Z,70.23
2022-10-21T13:00:29.206Z,70.58
2022-10-21T13:01:42.791Z,70.96
2022-10-21T13:03:06.272Z,71.82
2022-10-21T13:04:46.763Z,71.33
2022-10-21T13:05:50.160Z,71.92
2022-10-21T13:06:51.948Z,72.13
2022-10-21T13:08:11.961Z,72.49
2022-10-21T13:09:31.886Z,72.24
2022-10-21T13:10:33.777Z,72.38
2022-10-21T13:11:35.485Z,72.51
2022-10-21T13:12:37.662Z,72.44
2022-10-21T13:13:46.549Z,72.46
2022-10-21T13:14:49.451Z,72.58
2022-10-21T13:15:51.419Z,72.48
2022-10-21T13:16:53.223Z,72.62
2022-10-21T13:17:56.292Z,72.75
2022-10-21T13:18:59.494Z,72.57
2022-10-21T13:20:07.170Z,72.49
2022-10-21T13:21:22.596Z,72.30
2022-10-21T13:22:34.820Z,72.77
2022-10-21T13:23:37.920Z,72.34
2022-10-21T13:24:40.191Z,72.14
2022-10-21T13:25:42.111Z,72.49
2022-10-21T13:26:57.408Z,72.56
2022-10-21T13:28:14.287Z,72.55
2022-10-21T13:29:23.870Z,72.61
2022-10-21T13:30:29.899Z,72.59
2022-10-21T13:31:31.823Z,72.63
2022-10-21T13:32:34.831Z,72.67
2022-10-21T13:33:38.943Z,72.74
2022-10-21T13:34:42.859Z,72.39
2022-10-21T13:35:46.655Z,72.06
2022-10-21T13:36:50.738Z,72.00
2022-10-21T13:38:01.636Z,72.43
2022-10-21T13:39:06.705Z,72.32
2022-10-21T13:40:18.864Z,72.51
2022-10-21T13:41:23.820Z,72.35
2022-10-21T13:42:30.117Z,72.62
2022-10-21T13:43:47.218Z,72.40
2022-10-21T13:44:53.657Z,72.53
2022-10-21T13:46:14.641Z,72.66
2022-10-21T13:47:33.259Z,72.63
2022-10-21T13:48:40.172Z,72.73
2022-10-21T13:49:43.486Z,73.03
2022-10-21T13:50:46.945Z,73.00
2022-10-21T13:51:48.729Z,72.58
2022-10-21T13:52:53.342Z,72.81
2022-10-21T13:54:07.533Z,73.12
2022-10-21T13:55:17.639Z,73.22
2022-10-21T13:56:21.415Z,73.13
2022-10-21T13:57:23.220Z,72.88
2022-10-21T13:58:25.766Z,73.01
2022-10-21T13:59:32.906Z,73.40
2022-10-21T14:00:34.829Z,73.53
2022-10-21T14:01:46.733Z,73.27
2022-10-21T14:02:49.634Z,73.65
2022-10-21T14:03:55.909Z,73.73
2022-10-21T14:04:57.719Z,73.75
2022-10-21T14:06:00.836Z,73.73